Terminal Aerodrome Forecast
Issued by NWS Austin/San Antonio, TX

Home | Current Version | Previous Version | Text Only | Print | Product List | Glossary On
Versions: 1 2 3 4 5 6 7 8 9 10 11 12 13 14
000
FTUS44 KEWX 270400 AAB
TAFSAT
TAF AMD
KSAT 270431Z 2705/2806 14005KT P6SM OVC008
     FM270700 14004KT 5SM BR OVC005
     FM270900 VRB03KT 3SM BR OVC005
     FM271400 35006KT P6SM VCSH OVC008
     FM271700 36010G17KT P6SM VCSH OVC015
     FM272300 36017G24KT P6SM OVC025
     FM280200 36014KT P6SM OVC018=

USA.gov is the U.S. government's official web portal to all federal, state and local government web resources and services.